Flight Sim Network - KORL Airport Info

    KORL (Executive Airport)  Login to use Map Selector
   

  RUNWAY INFORMATION    |    Airport Elevation : 113ft    |    LAT : 28.5454998016357  /  LON : -81.3329010009766
Runway Number 07 / 25 Runway Width 150' Runway Length 6003'
Lighted Runway Yes Runway StatusOpen Runway Surface Asphalt
Runway Number 13 / 31 Runway Width 100' Runway Length 4638'
Lighted Runway Yes Runway StatusOpen Runway Surface Asphalt
  CLOSE ALTERNATE AIRPORTS
ICAODistanceAirport NameLongest RWRW SurfaceMAP
91FL4NMLake Conway North Seaplane Base3000FTWater
KMCO7NMOrlando International Airport12037FTConcrete
89FL8NMLake Hiawassee Seaplane Base5000FTWater
FD9811NMFerguson Seaplane Base5000FTWater
KSFB15NMOrlando Sanford International Airport9600FTAsphalt
43FD16NMCole's Seaplane Base4500FTWater
KISM16NMKissimmee Gateway Airport6009FTAsphalt
X0416NMOrlando Country3165FTAsphalt
01FL17NMCedar Knoll Flying Ranch Airport3000FTDirt
FL5517NMSanford Seaplane Base4000FTWater
  AIRPORT WEATHER
62°F | 16°C
Temperature
80%
Humidity
30" | 1020mb
Pressure
10sm
Visibility
VFR
Flight Rules
CLR
Initial Clouds
FAIR
Conditions
Wind Info
4/25/24 9:53Z
Updated

KORL 250953Z AUTO 00000KT 10SM CLR 17/13 A3012 RMK AO2 SLP203 T01670133
  AIRPORT FREQUENCIES
NameFrequency
ATIS127.250
CLEARANCE122.100
GROUND121.400
TOWER118.700
UNICOM122.950
MULTICOM118.700
APPROACH119.400
DEPARTURE119.400
IORL (RWY 7)109.900

Powered by Virtual Airlines Manager